Naniwa Maru No.21 — JG5648 — position and weather

sailwx.info

Track history (hours):
 
Tides and Currents Weather Stations Pressure Air Temp Water Temp Dewpoint Dewpoint Depression Visibility Wind Speed Wind Dir Waves Ship Positions

Naniwa Maru No.21

Last reported at 2016-Apr-30 08:33 UTC. Time now 2016-Apr-30 20:45 UTC.
Position N 34°08' E 135°07'.

Length 71 m; draft 5.2 m.

Type: Tanker. MMSI: 431301595.

Date/timePositionNaut miles runAvg speedWind from/ knotsBaromVisibWave heightAir tempDewpointWater temp
2016-Apr-30 08:33N 34°08' E 135°07'0 0.1
2016-Apr-30 07:33N 34°08' E 135°07'0 0.0
2016-Apr-30 01:29N 34°08' E 135°07'0 0.1
2016-Apr-30 00:33N 34°08' E 135°07'0 0.0
2016-Apr-29 23:33N 34°08' E 135°07'6 5.9
2016-Apr-29 22:32N 34°08' E 134°60'23311.6
2016-Apr-29 02:26N 33°46' E 130°20'8 9.1
2016-Apr-29 01:32N 33°38' E 130°21'2 1.7
2016-Apr-29 00:31N 33°36' E 130°23'0 0.0
2016-Apr-28 22:28N 33°36' E 130°23'1 0.8
2016-Apr-28 21:32N 33°37' E 130°23'2 1.7
2016-Apr-28 20:31N 33°38' E 130°21'0 0.0
2016-Apr-28 19:31N 33°38' E 130°21'0 0.3
2016-Apr-28 18:33N 33°38' E 130°21'10 9.5
2016-Apr-28 17:33N 33°47' E 130°18'240 6.8
2016-Apr-27 06:26N 34°07' E 135°07'1 0.7
2016-Apr-27 05:22N 34°07' E 135°07'0 0.0
2016-Apr-27 04:28N 34°07' E 135°07'1 0.3
2016-Apr-27 02:08N 34°08' E 135°07'0 0.1
2016-Apr-27 01:26N 34°08' E 135°07'0 0.0
2016-Apr-26 22:17N 34°08' E 135°07'0 0.0
2016-Apr-26 21:08N 34°08' E 135°07'0 0.8
2016-Apr-26 20:33N 34°08' E 135°07'23911.7
2016-Apr-26 00:09N 33°46' E 130°20'711.1
2016-Apr-25 23:33N 33°39' E 130°17'6 5.7
2016-Apr-25 22:32N 33°36' E 130°23'0 0.0
2016-Apr-25 21:32N 33°36' E 130°23'0 0.0
2016-Apr-25 20:32N 33°36' E 130°23'0 0.0
2016-Apr-25 19:32N 33°36' E 130°23'0 0.0
2016-Apr-25 18:32N 33°36' E 130°23'0 0.0
2016-Apr-25 17:33N 33°36' E 130°23'0 0.0
2016-Apr-25 16:32N 33°36' E 130°23'0 0.0
2016-Apr-25 15:29N 33°36' E 130°23'0 0.0
2016-Apr-25 14:29N 33°36' E 130°23'0 0.0
2016-Apr-25 13:32N 33°36' E 130°23'0 0.0
2016-Apr-25 12:33N 33°36' E 130°23'0 0.0
2016-Apr-25 11:32N 33°36' E 130°23'0 0.0
2016-Apr-25 10:32N 33°36' E 130°23'0 0.0
2016-Apr-25 09:32N 33°36' E 130°23'0 0.0
2016-Apr-25 08:32N 33°36' E 130°23'0 0.0
2016-Apr-25 07:32N 33°36' E 130°23'0 0.0
2016-Apr-25 06:32N 33°36' E 130°23'0 0.0
2016-Apr-25 05:26N 33°36' E 130°23'3 2.9
2016-Apr-25 04:31N 33°38' E 130°20'2 2.5
2016-Apr-25 03:32N 33°36' E 130°23'0 0.0
2016-Apr-25 00:32N 33°36' E 130°23'2 1.8
2016-Apr-24 23:31N 33°38' E 130°21'0 0.0
2016-Apr-24 20:04N 33°38' E 130°21'0 0.1
2016-Apr-24 19:31N 33°38' E 130°21'0 0.0
2016-Apr-24 18:31N 33°38' E 130°21'1 1.1
2016-Apr-24 17:27N 33°38' E 130°20'910.2
2016-Apr-24 16:33N 33°47' E 130°18'241 7.8
2016-Apr-23 09:33N 34°36' E 135°04'1313.0
2016-Apr-23 08:33N 34°34' E 135°19'5 4.7
2016-Apr-23 07:28N 34°33' E 135°26'0 0.0
2016-Apr-23 05:28N 34°33' E 135°26'0 0.3
2016-Apr-23 04:32N 34°33' E 135°25'5 4.8
2016-Apr-23 03:25N 34°32' E 135°19'0 0.0
2016-Apr-23 02:25N 34°32' E 135°19'0 0.0
2016-Apr-23 01:28N 34°32' E 135°19'0 0.0
2016-Apr-23 00:30N 34°32' E 135°19'0 0.0
2016-Apr-22 23:33N 34°32' E 135°19'8 8.1
2016-Apr-22 22:33N 34°35' E 135°09'24912.4
2016-Apr-22 02:33N 33°40' E 130°17'7 5.3
2016-Apr-22 01:18N 33°36' E 130°23'0 0.0
2016-Apr-22 00:30N 33°36' E 130°23'0 0.0
2016-Apr-21 23:33N 33°36' E 130°23'1 0.8
2016-Apr-21 22:33N 33°37' E 130°23'2 1.6
2016-Apr-21 21:32N 33°38' E 130°21'0 0.0
2016-Apr-21 20:15N 33°38' E 130°21'0 0.0
2016-Apr-21 19:08N 33°37' E 130°21'0 0.0
2016-Apr-21 18:31N 33°38' E 130°21'0 0.0
2016-Apr-21 17:25N 33°38' E 130°21'0 0.0
2016-Apr-21 16:32N 33°38' E 130°21'0 0.1
2016-Apr-21 15:22N 33°38' E 130°21'0 0.1
2016-Apr-21 14:33N 33°38' E 130°21'0 0.0
2016-Apr-21 13:31N 33°37' E 130°21'0 0.0
2016-Apr-21 12:25N 33°37' E 130°21'0 0.0
2016-Apr-21 11:05N 33°37' E 130°21'0 0.0
2016-Apr-21 10:24N 33°38' E 130°21'0 0.0
2016-Apr-21 09:33N 33°38' E 130°21'0 0.0
2016-Apr-21 08:27N 33°38' E 130°21'0 0.0
2016-Apr-21 07:32N 33°38' E 130°21'0 0.0
2016-Apr-21 06:33N 33°38' E 130°21'0 0.1
2016-Apr-21 05:33N 33°38' E 130°21'0 0.0
2016-Apr-21 04:33N 33°38' E 130°21'0 0.0
2016-Apr-21 03:30N 33°38' E 130°21'0 0.0
2016-Apr-21 02:33N 33°38' E 130°21'0 0.0
2016-Apr-21 01:33N 33°38' E 130°21'0 0.0
2016-Apr-21 00:18N 33°38' E 130°21'0 0.0
2016-Apr-20 16:31N 33°37' E 130°21'5 5.6
2016-Apr-20 15:33N 33°41' E 130°16'  
Track history (hours):
 
Tides and Currents Weather Stations Pressure Air Temp Water Temp Dewpoint Dewpoint Depression Visibility Wind Speed Wind Dir Waves Ship Positions

Naniwa Maru No.21

Last reported at 2016-Apr-30 08:33 UTC. Time now 2016-Apr-30 20:45 UTC.
Position N 34°08' E 135°07'.

Length 71 m; draft 5.2 m.

Type: Tanker. MMSI: 431301595.

Date/timePositionNaut miles runAvg speedWind from/ knotsBaromVisibWave heightAir tempDewpointWater temp
2016-Apr-30 08:33N 34°08' E 135°07'0 0.1
2016-Apr-30 07:33N 34°08' E 135°07'0 0.0
2016-Apr-30 01:29N 34°08' E 135°07'0 0.1
2016-Apr-30 00:33N 34°08' E 135°07'0 0.0
2016-Apr-29 23:33N 34°08' E 135°07'6 5.9
2016-Apr-29 22:32N 34°08' E 134°60'23311.6
2016-Apr-29 02:26N 33°46' E 130°20'8 9.1
2016-Apr-29 01:32N 33°38' E 130°21'2 1.7
2016-Apr-29 00:31N 33°36' E 130°23'0 0.0
2016-Apr-28 22:28N 33°36' E 130°23'1 0.8
2016-Apr-28 21:32N 33°37' E 130°23'2 1.7
2016-Apr-28 20:31N 33°38' E 130°21'0 0.0
2016-Apr-28 19:31N 33°38' E 130°21'0 0.3
2016-Apr-28 18:33N 33°38' E 130°21'10 9.5
2016-Apr-28 17:33N 33°47' E 130°18'240 6.8
2016-Apr-27 06:26N 34°07' E 135°07'1 0.7
2016-Apr-27 05:22N 34°07' E 135°07'0 0.0
2016-Apr-27 04:28N 34°07' E 135°07'1 0.3
2016-Apr-27 02:08N 34°08' E 135°07'0 0.1
2016-Apr-27 01:26N 34°08' E 135°07'0 0.0
2016-Apr-26 22:17N 34°08' E 135°07'0 0.0
2016-Apr-26 21:08N 34°08' E 135°07'0 0.8
2016-Apr-26 20:33N 34°08' E 135°07'23911.7
2016-Apr-26 00:09N 33°46' E 130°20'711.1
2016-Apr-25 23:33N 33°39' E 130°17'6 5.7
2016-Apr-25 22:32N 33°36' E 130°23'0 0.0
2016-Apr-25 21:32N 33°36' E 130°23'0 0.0
2016-Apr-25 20:32N 33°36' E 130°23'0 0.0
2016-Apr-25 19:32N 33°36' E 130°23'0 0.0
2016-Apr-25 18:32N 33°36' E 130°23'0 0.0
2016-Apr-25 17:33N 33°36' E 130°23'0 0.0
2016-Apr-25 16:32N 33°36' E 130°23'0 0.0
2016-Apr-25 15:29N 33°36' E 130°23'0 0.0
2016-Apr-25 14:29N 33°36' E 130°23'0 0.0
2016-Apr-25 13:32N 33°36' E 130°23'0 0.0
2016-Apr-25 12:33N 33°36' E 130°23'0 0.0
2016-Apr-25 11:32N 33°36' E 130°23'0 0.0
2016-Apr-25 10:32N 33°36' E 130°23'0 0.0
2016-Apr-25 09:32N 33°36' E 130°23'0 0.0
2016-Apr-25 08:32N 33°36' E 130°23'0 0.0
2016-Apr-25 07:32N 33°36' E 130°23'0 0.0
2016-Apr-25 06:32N 33°36' E 130°23'0 0.0
2016-Apr-25 05:26N 33°36' E 130°23'3 2.9
2016-Apr-25 04:31N 33°38' E 130°20'2 2.5
2016-Apr-25 03:32N 33°36' E 130°23'0 0.0
2016-Apr-25 00:32N 33°36' E 130°23'2 1.8
2016-Apr-24 23:31N 33°38' E 130°21'0 0.0
2016-Apr-24 20:04N 33°38' E 130°21'0 0.1
2016-Apr-24 19:31N 33°38' E 130°21'0 0.0
2016-Apr-24 18:31N 33°38' E 130°21'1 1.1
2016-Apr-24 17:27N 33°38' E 130°20'910.2
2016-Apr-24 16:33N 33°47' E 130°18'241 7.8
2016-Apr-23 09:33N 34°36' E 135°04'1313.0
2016-Apr-23 08:33N 34°34' E 135°19'5 4.7
2016-Apr-23 07:28N 34°33' E 135°26'0 0.0
2016-Apr-23 05:28N 34°33' E 135°26'0 0.3
2016-Apr-23 04:32N 34°33' E 135°25'5 4.8
2016-Apr-23 03:25N 34°32' E 135°19'0 0.0
2016-Apr-23 02:25N 34°32' E 135°19'0 0.0
2016-Apr-23 01:28N 34°32' E 135°19'0 0.0
2016-Apr-23 00:30N 34°32' E 135°19'0 0.0
2016-Apr-22 23:33N 34°32' E 135°19'8 8.1
2016-Apr-22 22:33N 34°35' E 135°09'24912.4
2016-Apr-22 02:33N 33°40' E 130°17'7 5.3
2016-Apr-22 01:18N 33°36' E 130°23'0 0.0
2016-Apr-22 00:30N 33°36' E 130°23'0 0.0
2016-Apr-21 23:33N 33°36' E 130°23'1 0.8
2016-Apr-21 22:33N 33°37' E 130°23'2 1.6
2016-Apr-21 21:32N 33°38' E 130°21'0 0.0
2016-Apr-21 20:15N 33°38' E 130°21'0 0.0
2016-Apr-21 19:08N 33°37' E 130°21'0 0.0
2016-Apr-21 18:31N 33°38' E 130°21'0 0.0
2016-Apr-21 17:25N 33°38' E 130°21'0 0.0
2016-Apr-21 16:32N 33°38' E 130°21'0 0.1
2016-Apr-21 15:22N 33°38' E 130°21'0 0.1
2016-Apr-21 14:33N 33°38' E 130°21'0 0.0
2016-Apr-21 13:31N 33°37' E 130°21'0 0.0
2016-Apr-21 12:25N 33°37' E 130°21'0 0.0
2016-Apr-21 11:05N 33°37' E 130°21'0 0.0
2016-Apr-21 10:24N 33°38' E 130°21'0 0.0
2016-Apr-21 09:33N 33°38' E 130°21'0 0.0
2016-Apr-21 08:27N 33°38' E 130°21'0 0.0
2016-Apr-21 07:32N 33°38' E 130°21'0 0.0
2016-Apr-21 06:33N 33°38' E 130°21'0 0.1
2016-Apr-21 05:33N 33°38' E 130°21'0 0.0
2016-Apr-21 04:33N 33°38' E 130°21'0 0.0
2016-Apr-21 03:30N 33°38' E 130°21'0 0.0
2016-Apr-21 02:33N 33°38' E 130°21'0 0.0
2016-Apr-21 01:33N 33°38' E 130°21'0 0.0
2016-Apr-21 00:18N 33°38' E 130°21'0 0.0
2016-Apr-20 16:31N 33°37' E 130°21'5 5.6
2016-Apr-20 15:33N 33°41' E 130°16'  

Dump ship's entire track history